createdAt,value
2023-03-02T00:01:45.742Z,90.34
2023-03-02T00:04:18.070Z,90.85
2023-03-02T00:06:45.176Z,92.15
2023-03-02T00:09:12.248Z,92.02
2023-03-02T00:11:39.459Z,91.27
2023-03-02T00:14:06.838Z,91.13
2023-03-02T00:16:34.712Z,90.81
2023-03-02T00:19:01.809Z,91.29
2023-03-02T00:21:28.817Z,91.69
2023-03-02T00:23:55.732Z,91.74
2023-03-02T00:26:22.792Z,91.13
2023-03-02T00:28:49.755Z,91.04
2023-03-02T00:31:16.915Z,89.84
2023-03-02T00:33:44.100Z,89.21
2023-03-02T00:36:22.312Z,89.58
2023-03-02T00:38:49.713Z,90.26
2023-03-02T00:41:17.131Z,90.35
2023-03-02T00:43:44.074Z,90.82
2023-03-02T00:46:12.937Z,89.92
2023-03-02T00:48:39.886Z,90.04
2023-03-02T00:51:07.974Z,89.74
2023-03-02T00:53:38.260Z,91.21
2023-03-02T00:56:06.234Z,90.82
2023-03-02T00:58:33.200Z,90.72
2023-03-02T01:01:05.177Z,90.33
2023-03-02T01:03:32.195Z,91.02
2023-03-02T01:05:59.160Z,90.42
2023-03-02T01:08:26.108Z,89.92
2023-03-02T01:10:54.337Z,89.52
2023-03-02T01:13:21.607Z,89.42
2023-03-02T01:15:48.881Z,88.59
2023-03-02T01:18:15.821Z,88.55
2023-03-02T01:20:42.773Z,90.40
2023-03-02T01:23:09.689Z,92.83
2023-03-02T01:25:39.130Z,93.80
2023-03-02T01:28:06.079Z,94.36
2023-03-02T01:30:33.121Z,93.85
2023-03-02T01:33:00.019Z,94.22
2023-03-02T01:35:27.066Z,94.28
2023-03-02T01:37:53.989Z,93.54
2023-03-02T01:40:20.981Z,92.36
2023-03-02T01:42:56.868Z,92.93
2023-03-02T01:46:05.052Z,93.27
2023-03-02T01:48:35.802Z,92.31
2023-03-02T01:51:05.270Z,92.36
2023-03-02T01:53:34.328Z,92.96
2023-03-02T01:56:03.109Z,93.16
2023-03-02T01:58:34.726Z,91.83
2023-03-02T02:01:01.955Z,91.98
2023-03-02T02:03:31.229Z,92.28
2023-03-02T02:06:00.704Z,92.51
2023-03-02T02:08:28.980Z,92.75
2023-03-02T02:11:13.675Z,92.32
2023-03-02T02:14:12.964Z,92.76
2023-03-02T02:16:55.402Z,93.81
2023-03-02T02:20:13.821Z,93.49
2023-03-02T02:23:17.974Z,93.67
2023-03-02T02:26:03.130Z,93.40
2023-03-02T02:28:48.524Z,92.48
2023-03-02T02:31:24.022Z,93.05
2023-03-02T02:33:58.894Z,93.67
2023-03-02T02:36:34.229Z,93.99
2023-03-02T02:39:04.614Z,93.89
2023-03-02T02:41:39.062Z,93.37
2023-03-02T02:44:06.654Z,93.19
2023-03-02T02:46:34.756Z,92.17
2023-03-02T02:49:04.417Z,92.16
2023-03-02T02:51:31.372Z,93.05
2023-03-02T02:54:01.331Z,92.52
2023-03-02T02:56:33.116Z,92.81
2023-03-02T02:59:06.548Z,93.72
2023-03-02T03:01:34.811Z,93.27
2023-03-02T03:04:04.507Z,93.19
2023-03-02T03:06:42.793Z,93.15
2023-03-02T03:09:13.121Z,92.73
2023-03-02T03:11:46.855Z,92.32
2023-03-02T03:14:16.231Z,91.84
2023-03-02T03:16:45.339Z,92.21
2023-03-02T03:19:16.377Z,92.51
2023-03-02T03:21:43.343Z,92.03
2023-03-02T03:24:10.803Z,92.00
2023-03-02T03:26:37.789Z,92.64
2023-03-02T03:29:05.023Z,92.25
2023-03-02T03:31:32.000Z,92.07
2023-03-02T03:34:01.913Z,91.24
2023-03-02T03:36:30.997Z,90.37
2023-03-02T03:38:58.516Z,90.34
2023-03-02T03:41:25.654Z,89.98
2023-03-02T03:43:53.372Z,90.24
2023-03-02T03:46:20.790Z,91.48
2023-03-02T03:48:47.799Z,91.54
2023-03-02T03:51:14.736Z,92.33
2023-03-02T03:53:41.667Z,91.88
2023-03-02T03:56:08.716Z,92.30
2023-03-02T03:58:36.085Z,92.78
2023-03-02T04:01:05.944Z,92.54
2023-03-02T04:03:33.954Z,91.54
2023-03-02T04:06:01.076Z,91.49
2023-03-02T04:08:28.145Z,91.30
2023-03-02T04:10:55.077Z,90.07
2023-03-02T04:13:22.026Z,91.27
2023-03-02T04:15:48.962Z,91.36
2023-03-02T04:18:15.929Z,92.45
2023-03-02T04:20:42.843Z,93.10
2023-03-02T04:23:09.813Z,93.04
2023-03-02T04:25:36.680Z,93.01
2023-03-02T04:28:03.643Z,93.88
2023-03-02T04:30:30.631Z,92.52
2023-03-02T04:32:57.885Z,91.83
2023-03-02T04:35:25.783Z,92.62
2023-03-02T04:37:52.771Z,93.75
2023-03-02T04:40:20.260Z,92.88
2023-03-02T04:42:47.488Z,93.21
2023-03-02T04:45:15.226Z,93.84
2023-03-02T04:47:42.760Z,94.43
2023-03-02T04:50:12.412Z,94.46
2023-03-02T04:52:39.628Z,92.77
2023-03-02T04:55:07.572Z,94.19
2023-03-02T04:57:36.944Z,94.12
2023-03-02T05:00:05.154Z,93.82
2023-03-02T05:02:32.405Z,93.25
2023-03-02T05:04:59.327Z,95.24
2023-03-02T05:07:26.324Z,94.83
2023-03-02T05:09:53.246Z,93.27
2023-03-02T05:12:21.921Z,93.03
2023-03-02T05:14:48.816Z,90.56
2023-03-02T05:17:15.912Z,91.41
2023-03-02T05:19:42.847Z,91.26
2023-03-02T05:22:09.992Z,91.09
2023-03-02T05:24:37.611Z,90.58
2023-03-02T05:27:05.090Z,90.86
2023-03-02T05:29:32.097Z,90.36
2023-03-02T05:31:59.110Z,90.02
2023-03-02T05:34:26.063Z,91.09
2023-03-02T05:36:52.928Z,90.99
2023-03-02T05:39:19.869Z,93.84
2023-03-02T05:41:46.785Z,94.71
2023-03-02T05:44:13.760Z,94.90
2023-03-02T05:46:41.876Z,94.56
2023-03-02T05:49:08.977Z,95.83
2023-03-02T05:51:35.869Z,96.16
2023-03-02T05:54:02.766Z,96.06
2023-03-02T05:56:29.661Z,95.80
2023-03-02T05:58:56.588Z,96.46
2023-03-02T06:01:23.544Z,95.65
2023-03-02T06:03:50.477Z,95.34
2023-03-02T06:06:17.429Z,94.29
2023-03-02T06:08:44.901Z,93.56
2023-03-02T06:11:12.837Z,92.84
2023-03-02T06:13:40.522Z,93.03
2023-03-02T06:16:08.557Z,93.25
2023-03-02T06:18:36.387Z,92.12
2023-03-02T06:21:03.964Z,92.67
2023-03-02T06:23:31.188Z,92.37
2023-03-02T06:25:59.262Z,91.38
2023-03-02T06:28:26.978Z,91.28
2023-03-02T06:30:53.972Z,90.77
2023-03-02T06:33:21.719Z,90.06
2023-03-02T06:35:49.490Z,89.82
2023-03-02T06:38:16.755Z,89.61
2023-03-02T06:40:44.089Z,89.00
2023-03-02T06:43:11.372Z,88.12
2023-03-02T06:45:38.564Z,88.60
2023-03-02T06:48:05.906Z,88.47
2023-03-02T06:50:33.834Z,87.37
2023-03-02T06:53:00.826Z,87.13
2023-03-02T06:55:27.891Z,87.40
2023-03-02T06:57:54.809Z,87.02
2023-03-02T07:00:26.518Z,86.27
2023-03-02T07:02:54.013Z,87.38
2023-03-02T07:05:22.050Z,87.18
2023-03-02T07:07:49.064Z,86.18
2023-03-02T07:10:16.495Z,85.79
2023-03-02T07:12:43.454Z,85.93
2023-03-02T07:15:12.523Z,85.13
2023-03-02T07:17:40.467Z,85.24
2023-03-02T07:20:08.722Z,85.13
2023-03-02T07:22:35.789Z,83.45
2023-03-02T07:25:02.694Z,83.65
2023-03-02T07:27:29.894Z,83.13
2023-03-02T07:29:56.770Z,83.23
2023-03-02T07:32:23.871Z,81.39
2023-03-02T07:34:50.786Z,82.48
2023-03-02T07:37:17.818Z,82.21
2023-03-02T07:39:44.817Z,81.49
2023-03-02T07:42:12.954Z,82.00
2023-03-02T07:44:39.983Z,81.99
2023-03-02T07:47:06.926Z,79.69
2023-03-02T07:49:35.585Z,78.25
2023-03-02T07:52:03.321Z,80.10
2023-03-02T07:54:30.756Z,78.31
2023-03-02T07:56:58.629Z,78.50
2023-03-02T07:59:26.308Z,77.36
2023-03-02T08:01:53.286Z,76.42
2023-03-02T08:04:20.220Z,75.75
2023-03-02T08:06:47.175Z,73.99
2023-03-02T08:09:16.729Z,73.50
2023-03-02T08:11:45.043Z,73.73
2023-03-02T08:14:12.206Z,71.46
2023-03-02T08:16:40.176Z,71.72
2023-03-02T08:19:08.042Z,69.62
2023-03-02T08:21:35.422Z,70.02
2023-03-02T08:24:02.569Z,69.71
2023-03-02T08:26:29.648Z,70.42
2023-03-02T08:28:56.664Z,68.34
2023-03-02T08:31:23.789Z,68.97
2023-03-02T08:33:51.246Z,67.46
2023-03-02T08:36:19.658Z,65.45
2023-03-02T08:38:47.754Z,64.18
2023-03-02T08:41:25.223Z,65.46
2023-03-02T08:43:54.473Z,64.91
2023-03-02T08:46:22.105Z,64.25
2023-03-02T08:48:52.799Z,63.66
2023-03-02T08:51:22.800Z,63.46
2023-03-02T08:53:51.837Z,63.21
2023-03-02T08:56:22.047Z,62.06
2023-03-02T08:58:50.076Z,60.52
2023-03-02T09:01:27.168Z,60.75
2023-03-02T09:03:54.189Z,59.84
2023-03-02T09:06:21.647Z,56.65
2023-03-02T09:08:50.004Z,57.10
2023-03-02T09:11:17.372Z,55.85
2023-03-02T09:13:44.364Z,55.99
2023-03-02T09:16:12.292Z,55.34
2023-03-02T09:18:39.767Z,53.58
2023-03-02T09:21:07.054Z,50.85
2023-03-02T09:23:36.729Z,48.43
2023-03-02T09:26:04.698Z,48.81
2023-03-02T09:28:32.235Z,48.27
2023-03-02T09:31:01.976Z,46.29
2023-03-02T09:33:30.376Z,44.42
2023-03-02T09:35:57.353Z,44.36
2023-03-02T09:38:24.471Z,46.53
2023-03-02T09:41:27.310Z,45.66
2023-03-02T09:44:12.991Z,44.57
2023-03-02T09:46:44.509Z,47.96
2023-03-02T09:49:35.879Z,44.72
2023-03-02T09:52:35.489Z,43.88
2023-03-02T09:55:18.540Z,40.82
2023-03-02T09:57:47.333Z,40.02
2023-03-02T10:00:27.385Z,41.12
2023-03-02T10:03:17.054Z,42.40
2023-03-02T10:05:50.382Z,42.85
2023-03-02T10:08:23.846Z,42.30
2023-03-02T10:10:58.297Z,44.46
2023-03-02T10:13:47.578Z,42.80
2023-03-02T10:16:31.362Z,41.19
2023-03-02T10:19:08.104Z,42.92
2023-03-02T10:21:41.606Z,43.22
2023-03-02T10:24:23.927Z,43.59
2023-03-02T10:26:55.488Z,42.57
2023-03-02T10:29:41.094Z,42.08
2023-03-02T10:32:20.052Z,42.71
2023-03-02T10:34:49.471Z,42.90
2023-03-02T10:37:21.899Z,42.13
2023-03-02T10:39:49.826Z,42.43
2023-03-02T10:42:22.706Z,42.87
2023-03-02T10:44:55.721Z,43.16
2023-03-02T10:47:28.493Z,41.63
2023-03-02T10:49:57.466Z,41.54
2023-03-02T10:52:26.546Z,41.87
2023-03-02T10:55:07.802Z,40.78
2023-03-02T10:57:58.988Z,41.95
2023-03-02T11:00:28.950Z,42.26
2023-03-02T11:02:59.109Z,41.75
2023-03-02T11:05:30.981Z,42.06
2023-03-02T11:08:05.591Z,42.71
2023-03-02T11:10:41.973Z,40.43
2023-03-02T11:13:28.913Z,41.23
2023-03-02T11:16:23.002Z,41.39
2023-03-02T11:18:54.767Z,39.79
2023-03-02T11:21:38.341Z,41.12
2023-03-02T11:24:18.585Z,40.72
2023-03-02T11:26:59.920Z,39.99
2023-03-02T11:29:35.744Z,40.48
2023-03-02T11:32:08.685Z,40.74
2023-03-02T11:34:41.440Z,42.19
2023-03-02T11:37:40.548Z,41.71
2023-03-02T11:40:16.385Z,41.83
2023-03-02T11:42:45.765Z,41.35
2023-03-02T11:45:18.027Z,42.99
2023-03-02T11:48:05.114Z,40.07
2023-03-02T11:50:46.407Z,41.09
2023-03-02T11:53:18.281Z,40.43
2023-03-02T11:55:48.812Z,40.44
2023-03-02T11:58:21.894Z,40.83
2023-03-02T12:00:49.836Z,41.16
2023-03-02T12:03:16.675Z,41.68
2023-03-02T12:05:51.400Z,41.01
2023-03-02T12:08:21.123Z,41.68
2023-03-02T12:11:00.932Z,40.13
2023-03-02T12:13:30.765Z,40.38
2023-03-02T12:15:58.009Z,40.68
2023-03-02T12:18:25.123Z,41.02
2023-03-02T12:21:19.953Z,40.87
2023-03-02T12:23:49.664Z,40.73
2023-03-02T12:26:34.333Z,40.63
2023-03-02T12:29:07.194Z,39.71
2023-03-02T12:31:55.548Z,40.13
2023-03-02T12:34:27.332Z,41.40
2023-03-02T12:37:01.913Z,39.65
2023-03-02T12:39:34.688Z,39.33
2023-03-02T12:42:32.461Z,40.25
2023-03-02T12:45:20.846Z,40.20
2023-03-02T12:47:57.204Z,40.07
2023-03-02T12:50:27.814Z,39.94
2023-03-02T12:53:06.585Z,39.35
2023-03-02T12:55:34.609Z,39.30
2023-03-02T12:58:02.352Z,40.47
2023-03-02T13:00:32.165Z,39.85
2023-03-02T13:03:02.386Z,39.15
2023-03-02T13:05:35.404Z,38.74
2023-03-02T13:08:06.248Z,38.33
2023-03-02T13:10:56.329Z,39.39
2023-03-02T13:13:34.915Z,37.95
2023-03-02T13:16:20.545Z,39.38
2023-03-02T13:18:50.052Z,39.30
2023-03-02T13:21:19.304Z,40.24
2023-03-02T13:23:54.549Z,41.64
2023-03-02T13:26:35.913Z,41.27
2023-03-02T13:29:19.441Z,40.71
2023-03-02T13:31:47.281Z,40.75
2023-03-02T13:34:28.558Z,40.21
2023-03-02T13:36:55.866Z,39.70
2023-03-02T13:39:27.514Z,42.28
2023-03-02T13:42:00.376Z,42.15
2023-03-02T13:44:29.826Z,41.63
2023-03-02T13:46:57.251Z,41.71
2023-03-02T13:49:35.592Z,40.83
2023-03-02T13:52:08.320Z,40.68
2023-03-02T13:54:37.732Z,39.80
2023-03-02T13:57:06.336Z,41.67
2023-03-02T13:59:36.800Z,41.13
2023-03-02T14:02:06.652Z,42.23
2023-03-02T14:04:33.667Z,42.58
2023-03-02T14:07:00.692Z,41.64
2023-03-02T14:09:27.589Z,41.13
2023-03-02T14:11:56.203Z,42.29
2023-03-02T14:14:27.318Z,40.94
2023-03-02T14:16:54.224Z,41.43
2023-03-02T14:19:21.541Z,43.29
2023-03-02T14:21:48.405Z,42.56
2023-03-02T14:24:15.514Z,42.38
2023-03-02T14:26:49.190Z,42.89
2023-03-02T14:29:23.710Z,42.93
2023-03-02T14:31:51.348Z,42.54
2023-03-02T14:34:18.512Z,42.70
2023-03-02T14:36:49.134Z,43.36
2023-03-02T14:39:40.251Z,44.13
2023-03-02T14:42:13.113Z,44.14
2023-03-02T14:44:41.365Z,43.94
2023-03-02T14:47:10.300Z,43.56
2023-03-02T14:49:38.418Z,42.98
2023-03-02T14:52:25.173Z,43.31
2023-03-02T14:54:58.207Z,45.19
2023-03-02T14:57:28.028Z,45.27
2023-03-02T14:59:56.421Z,43.69
2023-03-02T15:02:26.544Z,44.16
2023-03-02T15:04:56.518Z,45.60
2023-03-02T15:07:26.324Z,46.00
2023-03-02T15:09:54.835Z,45.09
2023-03-02T15:12:21.949Z,45.48
2023-03-02T15:14:48.858Z,45.18
2023-03-02T15:17:15.864Z,45.63
2023-03-02T15:19:42.838Z,44.78
2023-03-02T15:22:09.873Z,45.03
2023-03-02T15:24:36.792Z,46.14
2023-03-02T15:27:03.813Z,46.06
2023-03-02T15:29:30.721Z,46.00
2023-03-02T15:31:57.698Z,46.39
2023-03-02T15:34:24.703Z,45.86
2023-03-02T15:36:51.574Z,46.34
2023-03-02T15:39:18.477Z,46.49
2023-03-02T15:41:45.578Z,47.25
2023-03-02T15:44:23.120Z,46.74
2023-03-02T15:46:51.995Z,46.09
2023-03-02T15:49:24.664Z,44.63
2023-03-02T15:51:52.414Z,44.89
2023-03-02T15:54:19.848Z,46.16
2023-03-02T15:56:52.339Z,48.58
2023-03-02T15:59:24.306Z,48.07
2023-03-02T16:01:52.122Z,48.45
2023-03-02T16:04:19.689Z,49.87
2023-03-02T16:06:46.633Z,49.87
2023-03-02T16:09:13.579Z,52.45
2023-03-02T16:11:40.545Z,51.14
2023-03-02T16:14:10.358Z,54.10
2023-03-02T16:16:37.333Z,53.49
2023-03-02T16:19:04.325Z,53.80
2023-03-02T16:21:31.496Z,55.04
2023-03-02T16:24:04.763Z,55.50
2023-03-02T16:26:33.817Z,55.49
2023-03-02T16:29:01.754Z,56.75
2023-03-02T16:31:32.555Z,57.71
2023-03-02T16:34:03.939Z,58.07
2023-03-02T16:36:30.985Z,58.58
2023-03-02T16:38:57.860Z,58.09
2023-03-02T16:41:24.857Z,59.73
2023-03-02T16:43:57.192Z,59.72
2023-03-02T16:46:26.140Z,60.42
2023-03-02T16:48:53.763Z,61.16
2023-03-02T16:51:22.168Z,61.35
2023-03-02T16:53:49.438Z,61.72
2023-03-02T16:56:16.483Z,62.89
2023-03-02T16:58:44.015Z,62.14
2023-03-02T17:01:14.705Z,61.51
2023-03-02T17:03:42.507Z,63.01
2023-03-02T17:06:11.856Z,63.00
2023-03-02T17:08:39.148Z,63.49
2023-03-02T17:11:06.793Z,65.23
2023-03-02T17:13:34.485Z,66.92
2023-03-02T17:16:01.941Z,66.07
2023-03-02T17:18:30.033Z,66.84
2023-03-02T17:20:58.842Z,68.05
2023-03-02T17:23:27.378Z,67.82
2023-03-02T17:25:55.820Z,67.46
2023-03-02T17:28:23.249Z,68.27
2023-03-02T17:30:50.805Z,67.98
2023-03-02T17:33:18.496Z,67.94
2023-03-02T17:35:46.414Z,69.09
2023-03-02T17:38:14.786Z,68.52
2023-03-02T17:40:43.181Z,68.38
2023-03-02T17:43:10.722Z,69.33
2023-03-02T17:45:40.426Z,69.85
2023-03-02T17:48:07.537Z,69.66
2023-03-02T17:50:35.307Z,70.07
2023-03-02T17:53:03.484Z,70.46
2023-03-02T17:55:31.307Z,71.10
2023-03-02T17:57:58.965Z,70.90
2023-03-02T18:00:26.426Z,71.62
2023-03-02T18:02:54.833Z,71.40
2023-03-02T18:05:22.884Z,72.18
2023-03-02T18:07:52.154Z,72.37
2023-03-02T18:10:19.635Z,75.04
2023-03-02T18:12:52.353Z,75.37
2023-03-02T18:15:21.351Z,74.58
2023-03-02T18:17:49.360Z,73.95
2023-03-02T18:20:17.417Z,74.62
2023-03-02T18:22:44.625Z,74.52
2023-03-02T18:25:14.351Z,74.46
2023-03-02T18:27:41.713Z,75.56
2023-03-02T18:30:09.686Z,75.31
2023-03-02T18:32:38.505Z,74.76
2023-03-02T18:35:08.629Z,75.97
2023-03-02T18:37:37.343Z,76.63
2023-03-02T18:40:06.725Z,76.35
2023-03-02T18:42:34.321Z,76.32
2023-03-02T18:45:01.536Z,77.40
2023-03-02T18:47:34.903Z,78.45
2023-03-02T18:50:01.878Z,78.96
2023-03-02T18:52:29.152Z,79.21
2023-03-02T18:54:58.349Z,80.65
2023-03-02T18:57:25.827Z,80.71
2023-03-02T18:59:53.621Z,80.39
2023-03-02T19:02:21.489Z,80.52
2023-03-02T19:04:48.794Z,80.49
2023-03-02T19:07:16.576Z,80.44
2023-03-02T19:09:43.722Z,79.72
2023-03-02T19:12:11.920Z,80.26
2023-03-02T19:14:42.898Z,80.42
2023-03-02T19:17:10.423Z,80.49
2023-03-02T19:19:37.519Z,81.74
2023-03-02T19:22:09.369Z,81.37
2023-03-02T19:24:36.616Z,81.75
2023-03-02T19:27:03.879Z,82.16
2023-03-02T19:29:30.722Z,82.79
2023-03-02T19:31:57.892Z,82.48
2023-03-02T19:34:24.917Z,83.94
2023-03-02T19:36:51.816Z,85.89
2023-03-02T19:39:18.808Z,86.04
2023-03-02T19:41:45.772Z,86.32
2023-03-02T19:44:12.817Z,86.04
2023-03-02T19:46:40.490Z,86.25
2023-03-02T19:49:07.451Z,86.26
2023-03-02T19:51:35.199Z,87.05
2023-03-02T19:54:04.093Z,86.77
2023-03-02T19:56:40.308Z,88.46
2023-03-02T19:59:08.758Z,88.89
2023-03-02T20:01:36.276Z,90.18
2023-03-02T20:04:03.935Z,90.48
2023-03-02T20:06:34.351Z,90.14
2023-03-02T20:09:06.953Z,90.58
2023-03-02T20:11:34.974Z,89.48
2023-03-02T20:14:02.474Z,90.65
2023-03-02T20:16:34.701Z,91.88
2023-03-02T20:19:04.149Z,91.38
2023-03-02T20:21:34.295Z,91.63
2023-03-02T20:24:01.543Z,92.29
2023-03-02T20:26:28.627Z,93.30
2023-03-02T20:28:56.657Z,92.78
2023-03-02T20:31:25.223Z,93.21
2023-03-02T20:33:55.012Z,93.85
2023-03-02T20:36:35.941Z,93.54
2023-03-02T20:39:34.188Z,93.68
2023-03-02T20:42:03.229Z,94.59
2023-03-02T20:44:33.672Z,94.64
2023-03-02T20:47:07.371Z,94.29
2023-03-02T20:49:36.627Z,92.83
2023-03-02T20:52:05.587Z,92.94
2023-03-02T20:54:37.170Z,93.16
2023-03-02T20:57:05.795Z,94.44
2023-03-02T20:59:32.972Z,93.68
2023-03-02T21:02:00.157Z,93.48
2023-03-02T21:04:27.453Z,92.60
2023-03-02T21:06:54.640Z,93.32
2023-03-02T21:09:21.680Z,91.62
2023-03-02T21:11:49.046Z,92.35
2023-03-02T21:14:16.588Z,91.60
2023-03-02T21:16:45.837Z,92.19
2023-03-02T21:19:17.445Z,92.67
2023-03-02T21:21:44.441Z,92.80
2023-03-02T21:24:13.582Z,93.59
2023-03-02T21:26:41.885Z,94.50
2023-03-02T21:29:11.873Z,94.63
2023-03-02T21:31:41.276Z,97.19
2023-03-02T21:34:08.557Z,98.06
2023-03-02T21:36:36.631Z,98.33
2023-03-02T21:39:07.274Z,97.55
2023-03-02T21:41:36.207Z,97.08
2023-03-02T21:44:05.915Z,96.81
2023-03-02T21:46:35.103Z,97.45
2023-03-02T21:49:02.155Z,98.18
2023-03-02T21:51:29.194Z,99.56
2023-03-02T21:53:56.185Z,99.57
2023-03-02T21:56:25.626Z,100.00
2023-03-02T21:58:55.512Z,99.56
2023-03-02T22:01:24.338Z,99.46
2023-03-02T22:03:51.387Z,100.00
2023-03-02T22:06:24.096Z,100.00
2023-03-02T22:08:52.304Z,100.00
2023-03-02T22:11:30.868Z,99.10
2023-03-02T22:14:00.714Z,99.38
2023-03-02T22:16:37.387Z,100.00
2023-03-02T22:19:27.960Z,99.00
2023-03-02T22:21:57.079Z,97.82
2023-03-02T22:24:26.947Z,98.64
2023-03-02T22:27:02.631Z,98.37
2023-03-02T22:29:33.735Z,98.51
2023-03-02T22:32:15.526Z,98.37
2023-03-02T22:34:44.555Z,97.87
2023-03-02T22:37:15.460Z,98.05
2023-03-02T22:39:42.560Z,99.44
2023-03-02T22:42:16.784Z,99.35
2023-03-02T22:44:48.001Z,97.87
2023-03-02T22:47:20.525Z,97.24
2023-03-02T22:49:48.169Z,98.29
2023-03-02T22:52:21.079Z,97.90
2023-03-02T22:54:48.053Z,97.33
2023-03-02T22:57:33.735Z,96.52
2023-03-02T23:00:29.864Z,96.89
2023-03-02T23:02:57.677Z,98.73
2023-03-02T23:05:34.961Z,99.01
2023-03-02T23:08:22.608Z,100.00
2023-03-02T23:10:51.597Z,100.00
2023-03-02T23:13:21.102Z,100.00
2023-03-02T23:15:49.461Z,100.00
2023-03-02T23:18:24.389Z,100.00
2023-03-02T23:20:52.565Z,100.00
2023-03-02T23:23:21.390Z,100.00
2023-03-02T23:25:49.087Z,100.00
2023-03-02T23:28:16.025Z,100.00
2023-03-02T23:30:43.109Z,99.91
2023-03-02T23:33:10.080Z,99.63
2023-03-02T23:35:37.070Z,100.00
2023-03-02T23:38:04.190Z,99.38
2023-03-02T23:40:31.098Z,98.63
2023-03-02T23:42:58.012Z,99.55
2023-03-02T23:45:24.962Z,99.99
2023-03-02T23:47:52.362Z,99.87
2023-03-02T23:50:19.267Z,98.27
2023-03-02T23:52:46.181Z,99.59
2023-03-02T23:55:13.154Z,99.77
2023-03-02T23:57:40.098Z,100.00
